createdAt,value
2019-02-15T00:00:05.974Z,15.90
2019-02-15T00:01:05.966Z,13.60
2019-02-15T00:02:05.991Z,14.10
2019-02-15T00:03:05.962Z,20.20
2019-02-15T00:04:05.944Z,18.60
2019-02-15T00:05:05.919Z,14.40
2019-02-15T00:06:05.916Z,18.30
2019-02-15T00:07:05.902Z,15.80
2019-02-15T00:08:05.921Z,18.70
2019-02-15T00:09:05.881Z,16.60
2019-02-15T00:10:05.869Z,16.30
2019-02-15T00:11:05.867Z,17.40
2019-02-15T00:12:05.862Z,17.00
2019-02-15T00:13:13.298Z,18.00
2019-02-15T00:14:06.842Z,16.10
2019-02-15T00:15:05.817Z,17.40
2019-02-15T00:16:05.797Z,19.80
2019-02-15T00:17:05.801Z,16.30
2019-02-15T00:18:05.835Z,13.50
2019-02-15T00:19:05.790Z,15.50
2019-02-15T00:20:05.762Z,14.00
2019-02-15T00:21:05.750Z,16.90
2019-02-15T00:22:05.739Z,15.90
2019-02-15T00:23:05.746Z,17.20
2019-02-15T00:24:05.783Z,15.60
2019-02-15T00:25:05.703Z,16.70
2019-02-15T00:26:05.718Z,18.50
2019-02-15T00:27:05.709Z,15.90
2019-02-15T00:28:05.708Z,15.00
2019-02-15T00:29:05.705Z,14.60
2019-02-15T00:30:05.655Z,19.80
2019-02-15T00:31:05.646Z,15.90
2019-02-15T00:32:05.663Z,18.20
2019-02-15T00:33:05.621Z,14.00
2019-02-15T00:34:05.642Z,18.50
2019-02-15T00:35:05.635Z,14.70
2019-02-15T00:36:05.600Z,17.90
2019-02-15T00:37:05.589Z,18.10
2019-02-15T00:38:05.586Z,15.00
2019-02-15T00:39:06.323Z,16.30
2019-02-15T00:40:05.545Z,16.60
2019-02-15T00:41:05.824Z,17.80
2019-02-15T00:42:05.541Z,16.70
2019-02-15T00:43:05.528Z,17.60
2019-02-15T00:44:05.553Z,20.90
2019-02-15T00:45:05.519Z,17.90
2019-02-15T00:46:05.478Z,18.50
2019-02-15T00:47:05.497Z,21.00
2019-02-15T00:48:05.468Z,17.30
2019-02-15T00:49:05.467Z,19.00
2019-02-15T00:50:05.482Z,18.20
2019-02-15T00:51:05.440Z,21.50
2019-02-15T00:52:05.469Z,18.60
2019-02-15T00:53:05.407Z,20.30
2019-02-15T00:54:05.408Z,19.80
2019-02-15T00:55:06.286Z,20.30
2019-02-15T00:56:05.375Z,19.50
2019-02-15T00:57:05.400Z,20.10
2019-02-15T00:58:05.378Z,15.50
2019-02-15T00:59:05.343Z,17.50
2019-02-15T01:00:05.354Z,20.20
2019-02-15T01:01:05.333Z,18.30
2019-02-15T01:02:05.345Z,19.40
2019-02-15T01:03:05.330Z,20.50
2019-02-15T01:04:05.325Z,16.30
2019-02-15T01:05:05.280Z,17.20
2019-02-15T01:06:05.790Z,19.30
2019-02-15T01:07:05.272Z,17.70
2019-02-15T01:08:05.292Z,16.90
2019-02-15T01:09:05.284Z,18.30
2019-02-15T01:10:05.236Z,23.00
2019-02-15T01:11:05.230Z,17.40
2019-02-15T01:12:05.203Z,15.20
2019-02-15T01:13:05.789Z,17.40
2019-02-15T01:14:05.190Z,17.90
2019-02-15T01:15:05.239Z,17.70
2019-02-15T01:16:05.166Z,18.20
2019-02-15T01:17:05.165Z,18.70
2019-02-15T01:18:05.140Z,16.40
2019-02-15T01:19:05.159Z,16.10
2019-02-15T01:20:05.165Z,16.90
2019-02-15T01:21:05.115Z,17.40
2019-02-15T01:22:05.104Z,22.20
2019-02-15T01:23:05.095Z,17.10
2019-02-15T01:24:05.100Z,17.80
2019-02-15T01:25:05.082Z,17.90
2019-02-15T01:26:05.055Z,18.70
2019-02-15T01:27:05.041Z,18.20
2019-02-15T01:28:05.063Z,17.40
2019-02-15T01:29:05.048Z,16.00
2019-02-15T01:30:05.020Z,17.00
2019-02-15T01:31:05.045Z,17.20
2019-02-15T01:32:04.994Z,16.40
2019-02-15T01:33:04.987Z,17.30
2019-02-15T01:34:05.006Z,18.50
2019-02-15T01:35:04.979Z,18.80
2019-02-15T01:36:04.968Z,18.40
2019-02-15T01:37:04.954Z,15.30
2019-02-15T01:38:04.927Z,16.60
2019-02-15T01:39:04.943Z,14.40
2019-02-15T01:40:04.950Z,16.10
2019-02-15T01:41:04.945Z,14.30
2019-02-15T01:42:04.894Z,16.20
2019-02-15T01:43:04.877Z,17.40
2019-02-15T01:44:04.865Z,15.80
2019-02-15T01:45:04.864Z,15.80
2019-02-15T01:46:04.915Z,17.90
2019-02-15T01:47:04.843Z,15.60
2019-02-15T01:48:04.868Z,14.70
2019-02-15T01:49:04.816Z,15.50
2019-02-15T01:50:04.814Z,16.90
2019-02-15T01:51:04.816Z,17.70
2019-02-15T01:52:04.785Z,20.90
2019-02-15T01:53:04.777Z,16.60
2019-02-15T01:54:04.786Z,17.80
2019-02-15T01:55:04.751Z,15.80
2019-02-15T01:56:04.793Z,19.60
2019-02-15T01:57:04.731Z,16.00
2019-02-15T01:58:04.717Z,16.00
2019-02-15T01:59:04.706Z,16.80
2019-02-15T02:00:04.715Z,14.50
2019-02-15T02:01:05.709Z,17.90
2019-02-15T02:02:05.299Z,14.90
2019-02-15T02:03:04.673Z,15.80
2019-02-15T02:04:05.282Z,17.70
2019-02-15T02:05:04.709Z,16.80
2019-02-15T02:06:04.630Z,17.30
2019-02-15T02:07:04.678Z,15.10
2019-02-15T02:08:04.605Z,17.50
2019-02-15T02:09:04.641Z,15.10
2019-02-15T02:10:04.615Z,17.50
2019-02-15T02:11:04.590Z,17.40
2019-02-15T02:12:04.565Z,16.50
2019-02-15T02:13:04.603Z,16.90
2019-02-15T02:14:04.543Z,18.40
2019-02-15T02:15:04.555Z,16.90
2019-02-15T02:16:04.524Z,15.80
2019-02-15T02:17:04.516Z,16.00
2019-02-15T02:18:04.536Z,16.80
2019-02-15T02:19:04.552Z,16.10
2019-02-15T02:20:04.482Z,18.30
2019-02-15T02:21:04.485Z,16.40
2019-02-15T02:22:04.471Z,17.30
2019-02-15T02:23:04.470Z,16.20
2019-02-15T02:24:04.446Z,16.80
2019-02-15T02:25:04.487Z,16.60
2019-02-15T02:26:04.432Z,17.80
2019-02-15T02:27:04.407Z,18.10
2019-02-15T02:28:04.408Z,16.20
2019-02-15T02:29:04.378Z,16.00
2019-02-15T02:30:04.398Z,18.30
2019-02-15T02:31:04.377Z,18.90
2019-02-15T02:32:04.389Z,16.20
2019-02-15T02:33:05.305Z,16.40
2019-02-15T02:34:04.336Z,17.40
2019-02-15T02:35:04.320Z,16.70
2019-02-15T02:36:04.307Z,17.30
2019-02-15T02:37:04.300Z,17.50
2019-02-15T02:38:04.315Z,17.00
2019-02-15T02:39:05.288Z,16.90
2019-02-15T02:40:04.276Z,16.30
2019-02-15T02:41:04.257Z,15.40
2019-02-15T02:42:04.318Z,17.50
2019-02-15T02:43:04.234Z,16.60
2019-02-15T02:44:04.244Z,17.60
2019-02-15T02:45:04.216Z,14.30
2019-02-15T02:46:04.207Z,16.30
2019-02-15T02:47:04.219Z,16.60
2019-02-15T02:48:04.190Z,16.60
2019-02-15T02:49:04.175Z,16.70
2019-02-15T02:50:04.160Z,17.10
2019-02-15T02:51:04.149Z,15.60
2019-02-15T02:52:04.155Z,14.40
2019-02-15T02:53:04.129Z,17.10
2019-02-15T02:54:04.142Z,15.70
2019-02-15T02:55:04.105Z,14.80
2019-02-15T02:56:04.097Z,15.60
2019-02-15T02:57:04.130Z,14.30
2019-02-15T02:58:04.080Z,17.70
2019-02-15T02:59:04.060Z,15.00
2019-02-15T03:00:04.055Z,14.70
2019-02-15T03:01:04.073Z,15.60
2019-02-15T03:02:04.033Z,17.00
2019-02-15T03:03:04.077Z,16.10
2019-02-15T03:04:04.006Z,17.30
2019-02-15T03:05:04.001Z,16.20
2019-02-15T03:06:03.988Z,17.50
2019-02-15T03:07:03.992Z,16.90
2019-02-15T03:08:03.966Z,17.40
2019-02-15T03:09:03.969Z,16.70
2019-02-15T03:10:03.939Z,16.40
2019-02-15T03:11:03.930Z,16.40
2019-02-15T03:12:03.919Z,17.80
2019-02-15T03:13:03.960Z,17.00
2019-02-15T03:14:11.420Z,19.10
2019-02-15T03:15:04.889Z,17.80
2019-02-15T03:16:04.773Z,17.10
2019-02-15T03:17:03.863Z,16.60
2019-02-15T03:18:03.861Z,19.00
2019-02-15T03:19:03.880Z,15.80
2019-02-15T03:20:03.873Z,16.70
2019-02-15T03:21:03.819Z,16.00
2019-02-15T03:22:03.835Z,19.10
2019-02-15T03:23:03.806Z,18.10
2019-02-15T03:24:03.793Z,17.30
2019-02-15T03:25:03.843Z,16.00
2019-02-15T03:26:03.771Z,16.20
2019-02-15T03:27:03.758Z,15.30
2019-02-15T03:28:03.747Z,17.20
2019-02-15T03:29:03.759Z,17.10
2019-02-15T03:30:03.772Z,16.90
2019-02-15T03:31:03.762Z,19.50
2019-02-15T03:32:03.705Z,16.70
2019-02-15T03:33:03.731Z,16.10
2019-02-15T03:34:03.705Z,16.30
2019-02-15T03:35:03.701Z,19.00
2019-02-15T03:36:03.717Z,16.50
2019-02-15T03:37:03.642Z,17.00
2019-02-15T03:38:03.645Z,14.90
2019-02-15T03:39:03.622Z,16.10
2019-02-15T03:40:03.632Z,18.20
2019-02-15T03:41:03.633Z,17.80
2019-02-15T03:42:03.590Z,16.00
2019-02-15T03:43:03.585Z,16.80
2019-02-15T03:44:03.573Z,17.30
2019-02-15T03:45:03.573Z,16.90
2019-02-15T03:46:03.571Z,15.00
2019-02-15T03:47:03.555Z,16.20
2019-02-15T03:48:03.530Z,17.50
2019-02-15T03:49:03.531Z,16.40
2019-02-15T03:50:04.925Z,15.50
2019-02-15T03:51:03.515Z,17.90
2019-02-15T03:52:03.487Z,18.30
2019-02-15T03:53:03.494Z,16.80
2019-02-15T03:54:03.466Z,18.00
2019-02-15T03:55:03.457Z,15.60
2019-02-15T03:56:03.469Z,20.40
2019-02-15T03:57:03.437Z,15.50
2019-02-15T03:58:03.451Z,15.90
2019-02-15T03:59:03.427Z,15.30
2019-02-15T04:00:03.401Z,18.00
2019-02-15T04:01:03.427Z,15.00
2019-02-15T04:02:03.420Z,16.70
2019-02-15T04:03:03.361Z,17.90
2019-02-15T04:04:03.354Z,16.60
2019-02-15T04:05:03.341Z,17.20
2019-02-15T04:06:03.341Z,15.80
2019-02-15T04:07:03.350Z,16.00
2019-02-15T04:08:03.337Z,17.10
2019-02-15T04:09:03.382Z,17.80
2019-02-15T04:10:03.295Z,15.90
2019-02-15T04:11:03.301Z,16.00
2019-02-15T04:12:03.292Z,17.10
2019-02-15T04:13:03.265Z,22.60
2019-02-15T04:14:03.278Z,14.80
2019-02-15T04:15:03.245Z,17.30
2019-02-15T04:16:03.230Z,18.20
2019-02-15T04:17:03.214Z,15.70
2019-02-15T04:18:03.205Z,16.50
2019-02-15T04:19:03.193Z,18.20
2019-02-15T04:20:03.231Z,16.00
2019-02-15T04:21:03.169Z,17.00
2019-02-15T04:22:03.158Z,17.00
2019-02-15T04:23:03.750Z,18.40
2019-02-15T04:24:03.135Z,18.90
2019-02-15T04:25:03.125Z,18.80
2019-02-15T04:26:03.155Z,15.00
2019-02-15T04:27:03.112Z,20.90
2019-02-15T04:28:03.124Z,17.30
2019-02-15T04:29:03.082Z,17.40
2019-02-15T04:30:03.097Z,14.90
2019-02-15T04:31:03.057Z,16.20
2019-02-15T04:32:03.083Z,14.40
2019-02-15T04:33:03.047Z,20.10
2019-02-15T04:34:03.046Z,16.80
2019-02-15T04:35:03.029Z,16.70
2019-02-15T04:36:03.016Z,17.90
2019-02-15T04:37:03.029Z,15.00
2019-02-15T04:38:03.021Z,17.10
2019-02-15T04:39:03.001Z,15.50
2019-02-15T04:40:02.964Z,19.10
2019-02-15T04:41:02.958Z,15.10
2019-02-15T04:42:02.981Z,17.70
2019-02-15T04:43:02.930Z,16.60
2019-02-15T04:44:03.123Z,14.90
2019-02-15T04:45:02.942Z,15.70
2019-02-15T04:46:02.891Z,13.90
2019-02-15T04:47:04.854Z,16.30
2019-02-15T04:48:02.876Z,16.70
2019-02-15T04:49:02.866Z,16.90
2019-02-15T04:50:02.871Z,15.20
2019-02-15T04:51:02.885Z,15.50
2019-02-15T04:52:02.840Z,15.60
2019-02-15T04:53:03.256Z,15.00
2019-02-15T04:54:02.821Z,17.60
2019-02-15T04:55:02.890Z,17.90
2019-02-15T04:56:02.798Z,15.90
2019-02-15T04:57:02.781Z,17.50
2019-02-15T04:58:02.784Z,16.30
2019-02-15T04:59:02.752Z,16.00
2019-02-15T05:00:02.759Z,18.50
2019-02-15T05:01:02.751Z,19.10
2019-02-15T05:02:02.721Z,16.90
2019-02-15T05:03:02.720Z,16.70
2019-02-15T05:04:02.702Z,17.40
2019-02-15T05:05:02.716Z,15.70
2019-02-15T05:06:02.708Z,17.50
2019-02-15T05:07:02.696Z,15.70
2019-02-15T05:08:02.654Z,17.80
2019-02-15T05:09:02.652Z,16.90
2019-02-15T05:10:02.639Z,16.00
2019-02-15T05:11:02.639Z,18.10
2019-02-15T05:12:02.635Z,12.90
2019-02-15T05:13:02.638Z,16.70
2019-02-15T05:14:02.590Z,16.10
2019-02-15T05:15:02.593Z,17.00
2019-02-15T05:16:02.568Z,18.20
2019-02-15T05:17:02.571Z,15.60
2019-02-15T05:18:02.548Z,16.50
2019-02-15T05:19:02.577Z,17.40
2019-02-15T05:20:02.529Z,17.00
2019-02-15T05:21:02.519Z,14.40
2019-02-15T05:22:02.507Z,17.10
2019-02-15T05:23:02.525Z,16.10
2019-02-15T05:24:02.490Z,17.50
2019-02-15T05:25:02.493Z,18.90
2019-02-15T05:26:02.463Z,15.10
2019-02-15T05:27:02.451Z,20.10
2019-02-15T05:28:02.437Z,17.20
2019-02-15T05:29:02.451Z,19.00
2019-02-15T05:30:02.450Z,18.20
2019-02-15T05:31:02.403Z,17.30
2019-02-15T05:32:02.395Z,16.10
2019-02-15T05:33:02.405Z,17.30
2019-02-15T05:34:02.379Z,19.50
2019-02-15T05:35:02.392Z,16.90
2019-02-15T05:36:02.369Z,17.40
2019-02-15T05:37:02.342Z,16.60
2019-02-15T05:38:02.335Z,18.40
2019-02-15T05:39:02.332Z,17.60
2019-02-15T05:40:02.346Z,17.20
2019-02-15T05:41:02.342Z,16.40
2019-02-15T05:42:02.292Z,17.70
2019-02-15T05:43:02.285Z,17.80
2019-02-15T05:44:02.289Z,17.10
2019-02-15T05:45:04.055Z,16.70
2019-02-15T05:46:02.255Z,17.80
2019-02-15T05:47:02.273Z,19.10
2019-02-15T05:48:02.247Z,16.20
2019-02-15T05:49:02.216Z,18.50
2019-02-15T05:50:02.226Z,18.90
2019-02-15T05:51:02.200Z,17.40
2019-02-15T05:52:02.215Z,18.20
2019-02-15T05:53:02.224Z,15.50
2019-02-15T05:54:02.177Z,17.50
2019-02-15T05:55:02.153Z,16.80
2019-02-15T05:56:02.181Z,17.50
2019-02-15T05:57:02.797Z,18.00
2019-02-15T05:58:02.131Z,15.90
2019-02-15T05:59:02.124Z,18.60
2019-02-15T06:00:02.108Z,18.50
2019-02-15T06:01:02.110Z,18.30
2019-02-15T06:02:02.093Z,22.30
2019-02-15T06:03:02.090Z,18.20
2019-02-15T06:04:02.142Z,18.80
2019-02-15T06:05:02.703Z,19.90
2019-02-15T06:06:02.038Z,18.70
2019-02-15T06:07:02.038Z,19.70
2019-02-15T06:08:02.041Z,21.40
2019-02-15T06:09:02.007Z,21.00
2019-02-15T06:10:01.989Z,19.30
2019-02-15T06:11:07.375Z,19.10
2019-02-15T06:12:02.971Z,18.60
2019-02-15T06:13:01.981Z,20.80
2019-02-15T06:14:01.955Z,20.70
2019-02-15T06:15:01.942Z,20.20
2019-02-15T06:16:01.937Z,19.30
2019-02-15T06:17:02.061Z,21.00
2019-02-15T06:18:01.914Z,19.90
2019-02-15T06:19:01.897Z,21.10
2019-02-15T06:20:01.895Z,21.00
2019-02-15T06:21:01.892Z,20.70
2019-02-15T06:22:01.866Z,20.90
2019-02-15T06:23:02.024Z,23.50
2019-02-15T06:24:01.907Z,20.80
2019-02-15T06:25:01.923Z,22.80
2019-02-15T06:26:01.907Z,20.20
2019-02-15T06:27:02.910Z,22.00
2019-02-15T06:28:02.771Z,19.80
2019-02-15T06:29:01.805Z,20.10
2019-02-15T06:30:01.776Z,21.30
2019-02-15T06:31:02.797Z,20.20
2019-02-15T06:32:01.787Z,23.20
2019-02-15T06:33:01.752Z,20.10
2019-02-15T06:34:01.895Z,20.70
2019-02-15T06:35:01.739Z,19.40
2019-02-15T06:36:01.751Z,19.40
2019-02-15T06:37:01.750Z,21.10
2019-02-15T06:38:01.775Z,17.30
2019-02-15T06:39:01.711Z,20.10
2019-02-15T06:40:01.675Z,20.10
2019-02-15T06:41:01.673Z,19.20
2019-02-15T06:42:01.676Z,19.10
2019-02-15T06:43:01.651Z,20.90
2019-02-15T06:44:01.783Z,19.00
2019-02-15T06:45:01.639Z,18.40
2019-02-15T06:46:01.674Z,20.60
2019-02-15T06:47:01.639Z,18.30
2019-02-15T06:48:01.579Z,17.70
2019-02-15T06:49:01.574Z,18.30
2019-02-15T06:50:01.597Z,17.90
2019-02-15T06:51:01.545Z,19.70
2019-02-15T06:52:01.554Z,19.40
2019-02-15T06:53:01.531Z,19.50
2019-02-15T06:54:01.519Z,20.20
2019-02-15T06:55:01.543Z,19.00
2019-02-15T06:56:01.511Z,19.60
2019-02-15T06:57:01.490Z,19.00
2019-02-15T06:58:01.479Z,18.70
2019-02-15T06:59:01.466Z,18.10
2019-02-15T07:00:01.461Z,18.80
2019-02-15T07:01:01.476Z,17.60
2019-02-15T07:02:01.422Z,16.90
2019-02-15T07:03:01.414Z,17.50
2019-02-15T07:04:01.427Z,16.60
2019-02-15T07:05:01.391Z,18.70
2019-02-15T07:06:03.247Z,18.70
2019-02-15T07:07:01.416Z,18.30
2019-02-15T07:08:01.363Z,21.40
2019-02-15T07:09:01.356Z,16.70
2019-02-15T07:10:01.338Z,19.10
2019-02-15T07:11:01.334Z,19.10
2019-02-15T07:12:02.752Z,17.70
2019-02-15T07:13:01.310Z,18.90
2019-02-15T07:14:01.296Z,19.30
2019-02-15T07:15:01.282Z,19.70
2019-02-15T07:16:01.274Z,18.20
2019-02-15T07:17:01.272Z,16.40
2019-02-15T07:18:01.272Z,17.60
2019-02-15T07:19:01.284Z,19.00
2019-02-15T07:20:01.252Z,19.90
2019-02-15T07:21:01.220Z,17.00
2019-02-15T07:22:01.209Z,17.70
2019-02-15T07:23:01.220Z,17.90
2019-02-15T07:24:01.205Z,17.10
2019-02-15T07:25:02.199Z,20.00
2019-02-15T07:26:01.173Z,16.70
2019-02-15T07:27:01.153Z,18.60
2019-02-15T07:28:01.162Z,16.90
2019-02-15T07:29:01.151Z,16.50
2019-02-15T07:30:01.138Z,17.20
2019-02-15T07:31:01.122Z,21.50
2019-02-15T07:32:01.131Z,21.20
2019-02-15T07:33:01.114Z,17.50
2019-02-15T07:34:01.103Z,19.60
2019-02-15T07:35:01.074Z,20.10
2019-02-15T07:36:01.059Z,19.70
2019-02-15T07:37:01.051Z,19.10
2019-02-15T07:38:01.053Z,25.20
2019-02-15T07:39:01.044Z,23.70
2019-02-15T07:40:01.028Z,26.50
2019-02-15T07:41:01.030Z,30.40
2019-02-15T07:42:01.001Z,32.10
2019-02-15T07:43:01.003Z,33.90
2019-02-15T07:44:01.007Z,33.80
2019-02-15T07:45:00.971Z,38.10
2019-02-15T07:46:00.971Z,38.20
2019-02-15T07:47:00.964Z,41.90
2019-02-15T07:48:00.929Z,42.40
2019-02-15T07:49:00.918Z,46.50
2019-02-15T07:50:00.968Z,47.30
2019-02-15T07:51:09.294Z,44.80
2019-02-15T07:52:01.921Z,47.20
2019-02-15T07:53:00.885Z,46.80
2019-02-15T07:54:00.874Z,43.00
2019-02-15T07:55:00.875Z,45.20
2019-02-15T07:56:00.862Z,38.10
2019-02-15T07:57:00.974Z,35.90
2019-02-15T07:58:00.837Z,30.00
2019-02-15T07:59:00.853Z,32.60
2019-02-15T08:00:01.057Z,25.30
2019-02-15T08:01:00.802Z,25.70
2019-02-15T08:02:02.052Z,23.90
2019-02-15T08:03:00.770Z,19.00
2019-02-15T08:04:00.769Z,19.70
2019-02-15T08:05:00.753Z,20.10
2019-02-15T08:06:00.814Z,20.00
2019-02-15T08:07:00.737Z,20.30
2019-02-15T08:08:00.728Z,20.00
2019-02-15T08:09:00.717Z,21.10
2019-02-15T08:10:00.723Z,16.40
2019-02-15T08:11:01.711Z,17.70
2019-02-15T08:12:00.699Z,18.00
2019-02-15T08:13:00.664Z,16.80
2019-02-15T08:14:00.654Z,15.20
2019-02-15T08:15:00.652Z,18.60
2019-02-15T08:16:02.707Z,15.90
2019-02-15T08:17:00.652Z,16.80
2019-02-15T08:18:00.671Z,15.20
2019-02-15T08:19:00.604Z,14.50
2019-02-15T08:20:00.586Z,15.40
2019-02-15T08:21:00.670Z,15.40
2019-02-15T08:22:00.605Z,17.00
2019-02-15T08:23:00.570Z,15.70
2019-02-15T08:24:00.548Z,17.30
2019-02-15T08:25:02.779Z,17.30
2019-02-15T08:26:00.535Z,17.70
2019-02-15T08:27:00.521Z,15.60
2019-02-15T08:28:00.549Z,18.00
2019-02-15T08:29:00.503Z,18.50
2019-02-15T08:30:00.509Z,16.80
2019-02-15T08:31:00.476Z,19.10
2019-02-15T08:32:00.518Z,16.90
2019-02-15T08:33:00.511Z,17.90
2019-02-15T08:34:01.235Z,17.20
2019-02-15T08:35:00.425Z,16.20
2019-02-15T08:36:00.433Z,19.50
2019-02-15T08:37:00.419Z,16.40
2019-02-15T08:38:00.415Z,16.40
2019-02-15T08:39:00.415Z,18.10
2019-02-15T08:40:00.404Z,16.50
2019-02-15T08:41:00.366Z,13.00
2019-02-15T08:42:03.861Z,14.90
2019-02-15T08:43:00.365Z,16.30
2019-02-15T08:44:00.353Z,14.90
2019-02-15T08:45:01.217Z,14.90
2019-02-15T08:46:01.754Z,15.40
2019-02-15T08:47:00.293Z,14.00
2019-02-15T08:48:00.292Z,14.10
2019-02-15T08:49:00.315Z,13.40
2019-02-15T08:50:00.357Z,13.00
2019-02-15T08:51:00.256Z,14.20
2019-02-15T08:52:00.238Z,13.00
2019-02-15T08:53:00.225Z,14.80
2019-02-15T08:54:00.229Z,11.20
2019-02-15T08:55:00.308Z,11.60
2019-02-15T08:56:00.269Z,10.70
2019-02-15T08:57:01.205Z,11.40
2019-02-15T08:58:00.175Z,15.30
2019-02-15T08:59:01.996Z,11.10
2019-02-15T09:00:00.434Z,13.10
2019-02-15T09:01:00.163Z,10.90
2019-02-15T09:02:00.165Z,9.50
2019-02-15T09:03:00.115Z,12.80
2019-02-15T09:04:00.138Z,9.70
2019-02-15T09:05:01.884Z,10.80
2019-02-15T09:06:00.094Z,11.60
2019-02-15T09:07:00.710Z,10.60
2019-02-15T09:08:00.057Z,11.60
2019-02-15T09:09:00.067Z,11.20
2019-02-15T09:10:00.103Z,12.00
2019-02-15T09:11:00.265Z,9.90
2019-02-15T09:12:00.020Z,9.30
2019-02-15T09:13:00.001Z,9.80
2019-02-15T09:13:59.996Z,10.50
2019-02-15T09:14:59.980Z,10.40
2019-02-15T09:16:00.004Z,7.30
2019-02-15T09:16:59.995Z,9.00
2019-02-15T09:17:59.967Z,9.60
2019-02-15T09:18:59.940Z,9.30
2019-02-15T09:19:59.933Z,9.50
2019-02-15T09:20:59.939Z,8.70
2019-02-15T09:21:59.909Z,6.80
2019-02-15T09:22:59.914Z,10.40
2019-02-15T09:23:59.880Z,9.20
2019-02-15T09:24:59.871Z,10.00
2019-02-15T09:25:59.883Z,10.00
2019-02-15T09:26:59.859Z,10.20
2019-02-15T09:27:59.838Z,9.30
2019-02-15T09:28:59.847Z,6.40
2019-02-15T09:29:59.853Z,9.20
2019-02-15T09:30:59.811Z,6.10
2019-02-15T09:32:00.277Z,5.80
2019-02-15T09:32:59.784Z,6.50
2019-02-15T09:33:59.787Z,5.30
2019-02-15T09:34:59.769Z,5.90
2019-02-15T09:35:59.765Z,6.40
2019-02-15T09:36:59.748Z,5.80
2019-02-15T09:37:59.749Z,5.00
2019-02-15T09:39:00.727Z,4.30
2019-02-15T09:39:59.710Z,5.40
2019-02-15T09:40:59.709Z,7.00
2019-02-15T09:41:59.718Z,5.10
2019-02-15T09:42:59.688Z,3.90
2019-02-15T09:43:59.668Z,4.00
2019-02-15T09:44:59.654Z,4.20
2019-02-15T09:45:59.658Z,3.90
2019-02-15T09:46:59.633Z,3.90
2019-02-15T09:47:59.632Z,5.30
2019-02-15T09:48:59.619Z,5.00
2019-02-15T09:49:59.598Z,6.10
2019-02-15T09:50:59.599Z,5.70
2019-02-15T09:51:59.593Z,6.30
2019-02-15T09:52:59.578Z,7.10
2019-02-15T09:53:59.551Z,5.30
2019-02-15T09:54:59.568Z,4.90
2019-02-15T09:55:59.546Z,5.10
2019-02-15T09:56:59.524Z,4.90
2019-02-15T09:57:59.533Z,5.30
2019-02-15T09:58:59.517Z,4.90
2019-02-15T09:59:59.484Z,5.30
2019-02-15T10:00:59.489Z,6.20
2019-02-15T10:01:59.481Z,5.90
2019-02-15T10:02:59.480Z,5.20
2019-02-15T10:03:59.448Z,4.40
2019-02-15T10:04:59.437Z,5.30
2019-02-15T10:05:59.421Z,5.00
2019-02-15T10:06:59.476Z,3.00
2019-02-15T10:07:59.405Z,3.60
2019-02-15T10:08:59.410Z,4.30
2019-02-15T10:09:59.379Z,4.40
2019-02-15T10:10:59.374Z,3.20
2019-02-15T10:11:59.370Z,3.80
2019-02-15T10:12:59.368Z,3.80
2019-02-15T10:13:59.357Z,3.80
2019-02-15T10:14:59.344Z,4.50
2019-02-15T10:15:59.315Z,2.90
2019-02-15T10:16:59.304Z,2.20
2019-02-15T10:17:59.311Z,2.70
2019-02-15T10:18:59.320Z,4.40
2019-02-15T10:19:59.275Z,4.20
2019-02-15T10:20:59.275Z,2.60
2019-02-15T10:21:59.246Z,2.60
2019-02-15T10:22:59.238Z,5.10
2019-02-15T10:23:59.242Z,2.70
2019-02-15T10:24:59.233Z,2.60
2019-02-15T10:25:59.215Z,3.80
2019-02-15T10:26:59.195Z,4.10
2019-02-15T10:27:59.177Z,2.90
2019-02-15T10:28:59.171Z,3.00
2019-02-15T10:29:59.207Z,2.60
2019-02-15T10:30:59.163Z,3.20
2019-02-15T10:31:59.139Z,5.20
2019-02-15T10:32:59.171Z,5.80
2019-02-15T10:33:59.123Z,3.80
2019-02-15T10:34:59.123Z,3.00
2019-02-15T10:35:59.097Z,5.50
2019-02-15T10:36:59.176Z,2.60
2019-02-15T10:37:59.097Z,3.10
2019-02-15T10:38:59.064Z,4.40
2019-02-15T10:39:59.754Z,2.50
2019-02-15T10:40:59.054Z,2.50
2019-02-15T10:41:59.056Z,4.10
2019-02-15T10:42:59.026Z,3.30
2019-02-15T10:43:59.043Z,3.00
2019-02-15T10:44:58.995Z,3.10
2019-02-15T10:45:59.003Z,3.20
2019-02-15T10:46:58.976Z,3.10
2019-02-15T10:47:58.981Z,4.00
2019-02-15T10:48:59.232Z,3.00
2019-02-15T10:49:58.942Z,2.40
2019-02-15T10:50:58.952Z,2.70
2019-02-15T10:51:58.934Z,5.90
2019-02-15T10:52:58.908Z,3.20
2019-02-15T10:54:00.164Z,3.30
2019-02-15T10:54:58.895Z,3.10
2019-02-15T10:55:58.878Z,3.40
2019-02-15T10:56:58.865Z,3.20
2019-02-15T10:57:58.882Z,2.70
2019-02-15T10:58:58.890Z,3.20
2019-02-15T10:59:58.864Z,2.20
2019-02-15T11:00:58.819Z,2.60
2019-02-15T11:01:58.806Z,2.50
2019-02-15T11:02:58.805Z,4.30
2019-02-15T11:03:58.784Z,4.40
2019-02-15T11:04:59.714Z,3.80
2019-02-15T11:05:58.778Z,3.30
2019-02-15T11:06:59.712Z,2.70
2019-02-15T11:07:58.778Z,4.90
2019-02-15T11:08:58.757Z,2.40
2019-02-15T11:09:58.751Z,2.40
2019-02-15T11:10:58.718Z,3.20
2019-02-15T11:11:59.763Z,5.20
2019-02-15T11:12:58.694Z,3.00
2019-02-15T11:13:58.683Z,3.00
2019-02-15T11:14:58.691Z,3.80
2019-02-15T11:15:58.652Z,2.50
2019-02-15T11:16:58.694Z,2.50
2019-02-15T11:17:58.644Z,2.70
2019-02-15T11:18:58.630Z,4.10
2019-02-15T11:19:58.614Z,4.40
2019-02-15T11:20:58.627Z,3.40
2019-02-15T11:21:58.603Z,3.40
2019-02-15T11:22:58.596Z,2.40
2019-02-15T11:23:58.609Z,3.10
2019-02-15T11:24:58.557Z,2.80
2019-02-15T11:25:58.562Z,3.10
2019-02-15T11:26:58.746Z,3.60
2019-02-15T11:27:58.535Z,3.50
2019-02-15T11:28:58.544Z,3.20
2019-02-15T11:29:58.506Z,3.30
2019-02-15T11:30:58.498Z,3.40
2019-02-15T11:31:58.508Z,3.20
2019-02-15T11:32:58.482Z,3.90
2019-02-15T11:33:58.486Z,5.10
2019-02-15T11:34:58.455Z,3.60
2019-02-15T11:35:58.434Z,5.10
2019-02-15T11:36:58.437Z,3.90
2019-02-15T11:37:58.430Z,4.90
2019-02-15T11:38:58.417Z,3.20
2019-02-15T11:39:58.453Z,3.40
2019-02-15T11:40:58.386Z,3.70
2019-02-15T11:41:58.381Z,4.60
2019-02-15T11:42:59.210Z,3.40
2019-02-15T11:43:58.426Z,3.00
2019-02-15T11:44:58.352Z,4.60
2019-02-15T11:45:58.334Z,4.30
2019-02-15T11:46:59.245Z,4.80
2019-02-15T11:47:58.330Z,3.40
2019-02-15T11:48:58.335Z,3.70
2019-02-15T11:49:58.333Z,3.20
2019-02-15T11:50:58.296Z,3.60
2019-02-15T11:51:58.262Z,3.70
2019-02-15T11:52:58.256Z,4.80
2019-02-15T11:53:58.712Z,4.80
2019-02-15T11:54:58.237Z,4.00
2019-02-15T11:55:58.229Z,4.00
2019-02-15T11:56:58.210Z,4.50
2019-02-15T11:57:58.201Z,4.40
2019-02-15T11:58:58.214Z,5.50
2019-02-15T11:59:58.214Z,5.60
2019-02-15T12:00:58.710Z,3.50
2019-02-15T12:02:05.849Z,3.60
2019-02-15T12:02:59.151Z,3.70
2019-02-15T12:03:58.178Z,3.90
2019-02-15T12:04:58.177Z,3.80
2019-02-15T12:05:58.190Z,4.30
2019-02-15T12:06:58.174Z,3.90
2019-02-15T12:07:58.088Z,4.60
2019-02-15T12:08:58.109Z,6.70
2019-02-15T12:09:58.069Z,3.90
2019-02-15T12:10:58.056Z,4.60
2019-02-15T12:11:58.075Z,3.40
2019-02-15T12:12:58.039Z,5.00
2019-02-15T12:13:58.021Z,5.20
2019-02-15T12:14:58.030Z,3.40
2019-02-15T12:15:57.990Z,2.90
2019-02-15T12:17:05.524Z,4.60
2019-02-15T12:17:59.117Z,4.40
2019-02-15T12:18:57.965Z,3.80
2019-02-15T12:19:57.955Z,4.00
2019-02-15T12:20:57.955Z,5.20
2019-02-15T12:21:57.961Z,3.70
2019-02-15T12:22:57.925Z,3.30
2019-02-15T12:23:57.923Z,5.00
2019-02-15T12:24:57.926Z,4.50
2019-02-15T12:25:57.883Z,5.30
2019-02-15T12:26:57.893Z,4.60
2019-02-15T12:27:57.886Z,4.60
2019-02-15T12:28:57.892Z,4.40
2019-02-15T12:29:57.846Z,3.40
2019-02-15T12:30:57.841Z,4.80
2019-02-15T12:31:57.822Z,4.80
2019-02-15T12:32:57.813Z,4.40
2019-02-15T12:33:57.975Z,2.80
2019-02-15T12:34:57.807Z,2.90
2019-02-15T12:35:57.842Z,4.80
2019-02-15T12:36:57.780Z,3.30
2019-02-15T12:37:57.956Z,4.20
2019-02-15T12:38:57.741Z,3.90
2019-02-15T12:39:57.746Z,5.00
2019-02-15T12:40:57.803Z,6.80
2019-02-15T12:41:57.713Z,3.50
2019-02-15T12:42:57.703Z,3.60
2019-02-15T12:43:57.686Z,4.20
2019-02-15T12:44:57.701Z,4.60
2019-02-15T12:45:57.700Z,3.70
2019-02-15T12:46:57.669Z,4.10
2019-02-15T12:47:57.637Z,4.80
2019-02-15T12:48:57.631Z,4.30
2019-02-15T12:49:57.623Z,4.20
2019-02-15T12:50:57.636Z,3.60
2019-02-15T12:51:57.620Z,4.20
2019-02-15T12:52:59.175Z,4.70
2019-02-15T12:53:57.583Z,3.30
2019-02-15T12:54:57.576Z,3.90
2019-02-15T12:55:57.601Z,3.10
2019-02-15T12:56:57.540Z,5.60
2019-02-15T12:57:57.557Z,3.20
2019-02-15T12:58:57.517Z,3.60